Speegleville, Texas
Current Conditions -  °F | °C
As of 3:51 AM on Friday 28 Nov 2014 (Local Time) from KACT Reporting Station
Clear Clear  
Wind Chill:   Ceiling: Unl
Heat Index:   Visibility: 10mi
Dew Point:   Wind: 5mph
Humidity: 86%   Direction: 180°S
Pressure: 30.31"   Gusts: NA
Location:  31.5356°N, 97.1921°W
Report Text: KACT 280951Z 18004KT 10SM CLR 02/00 A3031 RMK AO2 SLP264 T00220000
Loading
Personal Weather Stations






























Interactive Weather Map New forecast layout! Learn more

10-Day Weather Forecast

Advertisements
Track Severe Weather on mobile